Time;durP1;ratioP1;P1;durP2;ratioP2;P2;SDS_P1;SDS_P2;PMS_P1;PMS_P2;Temp;Humidity;BMP_temperature;BMP_pressure;BME280_temperature;BME280_humidity;BME280_pressure;Samples;Min_cycle;Max_cycle;Signal;HPM_P1;HPM_P2
2023/09/27 00:01:27;;;;;;;7.43;5.68;;;15.40;99.90;;;;;;5043730;28;20063;-67
2023/09/27 00:03:54;;;;;;;7.93;5.72;;;15.40;99.90;;;;;;5032729;28;20437;-69
2023/09/27 00:06:21;;;;;;;8.48;5.97;;;15.40;99.90;;;;;;5035532;28;20384;-68
2023/09/27 00:08:48;;;;;;;7.20;5.18;;;15.40;99.90;;;;;;5039409;28;20888;-67
2023/09/27 00:11:15;;;;;;;12.32;6.28;;;15.30;99.90;;;;;;5034482;28;20561;-70
2023/09/27 00:13:42;;;;;;;6.25;5.65;;;15.40;99.90;;;;;;5040512;28;20043;-69
2023/09/27 00:16:09;;;;;;;7.25;6.15;;;15.40;99.90;;;;;;5034326;28;20053;-65
2023/09/27 00:18:36;;;;;;;5.60;5.05;;;15.40;99.90;;;;;;5035206;28;20106;-67
2023/09/27 00:21:03;;;;;;;6.30;5.70;;;15.40;99.90;;;;;;5044947;28;20094;-66
2023/09/27 00:23:30;;;;;;;6.03;4.90;;;15.40;99.90;;;;;;5035400;28;20045;-66
2023/09/27 00:25:57;;;;;;;5.40;4.90;;;15.40;99.90;;;;;;5037559;28;20052;-71
2023/09/27 00:28:24;;;;;;;6.18;4.85;;;15.40;99.90;;;;;;5031783;28;20053;-64
2023/09/27 00:30:51;;;;;;;12.90;6.10;;;15.40;99.90;;;;;;5041937;28;20045;-66
2023/09/27 00:33:18;;;;;;;7.13;5.85;;;15.40;99.90;;;;;;5034379;28;20049;-70
2023/09/27 00:35:49;;;;;;;9.32;5.25;;;15.40;99.90;;;;;;5037874;28;20755;-67
2023/09/27 00:38:16;;;;;;;9.40;6.32;;;15.40;99.90;;;;;;5035186;28;20063;-69
2023/09/27 00:40:52;;;;;;;6.65;5.50;;;15.40;99.90;;;;;;5030704;28;20099;-68
2023/09/27 00:43:26;;;;;;;9.32;5.60;;;15.40;99.90;;;;;;5034609;28;20087;-71
2023/09/27 00:46:00;;;;;;;6.40;5.80;;;15.40;99.90;;;;;;5036052;28;20482;-66
2023/09/27 00:48:29;;;;;;;5.32;4.82;;;15.40;99.90;;;;;;5038983;28;20059;-71
2023/09/27 00:50:56;;;;;;;13.27;6.60;;;15.30;99.90;;;;;;5035924;28;20087;-69
2023/09/27 00:53:26;;;;;;;7.40;5.85;;;15.30;99.90;;;;;;5040654;28;20835;-67
2023/09/27 00:55:53;;;;;;;9.38;5.28;;;15.30;99.90;;;;;;5031798;28;20049;-64
2023/09/27 00:58:21;;;;;;;7.45;6.82;;;15.30;99.90;;;;;;5034465;28;20052;-69
2023/09/27 01:00:50;;;;;;;5.85;5.30;;;15.30;99.90;;;;;;5036477;28;21829;-65
2023/09/27 01:03:18;;;;;;;7.50;6.15;;;15.30;99.90;;;;;;5037453;28;20142;-66
2023/09/27 01:05:46;;;;;;;7.20;5.95;;;15.30;99.90;;;;;;5041700;28;20051;-64
2023/09/27 01:08:13;;;;;;;6.28;5.68;;;15.30;99.90;;;;;;5043070;28;20426;-65
2023/09/27 01:10:41;;;;;;;6.00;4.35;;;15.30;99.90;;;;;;5039907;28;20048;-66
2023/09/27 01:13:08;;;;;;;5.78;5.28;;;15.30;99.90;;;;;;5042216;28;20052;-72
2023/09/27 01:15:34;;;;;;;7.25;5.72;;;15.20;99.90;;;;;;5038832;28;20495;-68
2023/09/27 01:18:02;;;;;;;10.07;6.50;;;15.20;99.90;;;;;;5035470;28;20049;-64
2023/09/27 01:20:32;;;;;;;6.38;4.80;;;15.20;99.90;;;;;;5043351;28;20041;-68
2023/09/27 01:23:03;;;;;;;5.88;5.28;;;15.10;99.90;;;;;;5041373;28;20475;-66
2023/09/27 01:25:39;;;;;;;6.97;5.57;;;15.10;99.90;;;;;;5033368;28;20045;-67
2023/09/27 01:28:10;;;;;;;6.80;6.05;;;15.10;99.90;;;;;;5036401;28;20071;-67
2023/09/27 01:30:38;;;;;;;8.00;6.18;;;15.00;99.90;;;;;;5042597;28;20052;-67
2023/09/27 01:33:10;;;;;;;6.78;6.07;;;15.00;99.90;;;;;;5050429;28;20060;-69
2023/09/27 01:35:42;;;;;;;5.40;4.88;;;15.00;99.90;;;;;;5038953;28;20103;-69
2023/09/27 01:38:11;;;;;;;6.15;4.63;;;15.00;99.90;;;;;;5036864;28;20069;-65
2023/09/27 01:40:47;;;;;;;6.63;5.97;;;15.00;99.90;;;;;;5042968;28;20390;-64
2023/09/27 01:43:14;;;;;;;5.75;5.13;;;15.00;99.90;;;;;;5048128;28;20097;-68
2023/09/27 01:45:42;;;;;;;6.22;5.43;;;15.00;99.90;;;;;;5049061;28;20458;-76
2023/09/27 01:48:09;;;;;;;8.55;5.90;;;15.00;99.90;;;;;;5028441;28;20049;-73
2023/09/27 01:50:37;;;;;;;8.10;6.07;;;15.00;99.90;;;;;;5035880;28;20766;-67
2023/09/27 01:53:05;;;;;;;6.78;5.25;;;15.10;99.90;;;;;;5037239;28;20491;-66
2023/09/27 01:55:33;;;;;;;6.00;5.40;;;15.10;99.90;;;;;;5040909;28;20052;-67
2023/09/27 01:58:01;;;;;;;6.38;5.80;;;15.10;99.90;;;;;;5031066;28;20391;-65
2023/09/27 02:00:28;;;;;;;6.15;5.55;;;15.10;99.90;;;;;;5031188;28;20054;-74
2023/09/27 02:02:59;;;;;;;5.85;5.25;;;15.10;99.90;;;;;;5036249;28;20072;-67
2023/09/27 02:05:28;;;;;;;6.15;5.25;;;15.10;99.90;;;;;;5036625;28;20103;-69
2023/09/27 02:07:56;;;;;;;5.03;4.63;;;15.10;99.90;;;;;;5038395;28;20055;-66
2023/09/27 02:10:23;;;;;;;6.78;6.10;;;15.00;99.90;;;;;;5018374;28;20053;-66
2023/09/27 02:12:51;;;;;;;6.18;4.85;;;15.00;99.90;;;;;;5033584;28;20053;-70
2023/09/27 02:15:18;;;;;;;5.32;4.88;;;15.00;99.90;;;;;;5029666;28;20049;-68
2023/09/27 02:17:45;;;;;;;7.95;6.07;;;15.00;99.90;;;;;;5032014;28;20108;-68
2023/09/27 02:20:18;;;;;;;7.38;6.70;;;15.00;99.90;;;;;;5032696;28;20053;-64
2023/09/27 02:22:49;;;;;;;7.63;6.82;;;15.00;99.90;;;;;;5036400;28;20075;-68
2023/09/27 02:25:16;;;;;;;7.05;6.07;;;15.00;99.90;;;;;;5035466;28;20053;-68
2023/09/27 02:27:43;;;;;;;7.95;5.95;;;15.00;99.90;;;;;;5029508;28;20521;-69
2023/09/27 02:30:12;;;;;;;6.72;5.43;;;15.00;99.90;;;;;;5029414;28;20106;-67
2023/09/27 02:32:42;;;;;;;6.00;5.18;;;15.00;99.90;;;;;;5035798;28;20063;-68
2023/09/27 02:35:10;;;;;;;6.13;5.53;;;15.00;99.90;;;;;;5034538;28;20174;-72
2023/09/27 02:37:42;;;;;;;6.40;5.80;;;15.00;99.90;;;;;;5028513;28;20044;-73
2023/09/27 02:40:12;;;;;;;5.85;5.25;;;15.00;99.90;;;;;;5040649;28;20102;-69
2023/09/27 02:42:42;;;;;;;7.20;6.43;;;15.00;99.90;;;;;;5038350;28;20053;-67
2023/09/27 02:45:10;;;;;;;5.85;5.35;;;15.00;99.90;;;;;;5038101;28;20589;-65
2023/09/27 02:47:39;;;;;;;5.10;4.60;;;15.00;99.90;;;;;;5028784;28;20050;-69
2023/09/27 02:50:10;;;;;;;5.82;5.25;;;15.00;99.90;;;;;;5041945;28;20045;-68
2023/09/27 02:52:40;;;;;;;7.45;5.05;;;15.00;99.90;;;;;;5030910;28;20831;-73
2023/09/27 02:55:08;;;;;;;6.63;5.07;;;15.00;99.90;;;;;;5034846;28;20136;-67
2023/09/27 02:57:37;;;;;;;6.30;5.70;;;15.00;99.90;;;;;;5033396;28;20177;-65
2023/09/27 03:00:06;;;;;;;5.18;4.60;;;15.00;99.90;;;;;;5041682;28;20045;-70
2023/09/27 03:02:34;;;;;;;6.20;5.67;;;15.00;99.90;;;;;;5033501;28;20486;-72
2023/09/27 03:05:04;;;;;;;7.05;6.13;;;15.00;99.90;;;;;;5039150;28;20289;-78
2023/09/27 03:07:34;;;;;;;6.90;5.07;;;15.00;99.90;;;;;;5037320;28;20535;-69
2023/09/27 03:10:10;;;;;;;6.78;6.10;;;14.90;99.90;;;;;;5038440;28;20092;-68
2023/09/27 03:12:39;;;;;;;6.03;5.43;;;14.90;99.90;;;;;;5044196;28;20156;-68
2023/09/27 03:15:10;;;;;;;5.30;4.88;;;14.90;99.90;;;;;;5039332;28;20130;-75
2023/09/27 03:17:41;;;;;;;5.65;5.15;;;14.90;99.90;;;;;;5049772;28;20072;-64
2023/09/27 03:20:13;;;;;;;5.80;5.22;;;14.90;99.90;;;;;;5036453;28;20053;-65
2023/09/27 03:22:41;;;;;;;5.43;4.72;;;14.80;99.90;;;;;;5036496;28;20713;-71
2023/09/27 03:25:09;;;;;;;6.85;6.15;;;14.90;99.90;;;;;;5037373;28;21074;-66
2023/09/27 03:27:36;;;;;;;7.97;6.40;;;14.90;99.90;;;;;;5035219;28;20049;-66
2023/09/27 03:30:07;;;;;;;6.38;5.72;;;14.90;99.90;;;;;;5042116;28;20057;-66
2023/09/27 03:32:37;;;;;;;6.15;5.60;;;14.90;99.90;;;;;;5033951;28;20072;-66
2023/09/27 03:35:04;;;;;;;6.25;5.68;;;14.90;99.90;;;;;;5036581;28;20166;-68
2023/09/27 03:37:31;;;;;;;8.80;5.53;;;14.90;99.90;;;;;;5055232;28;20042;-67
2023/09/27 03:39:59;;;;;;;5.00;4.60;;;14.90;99.90;;;;;;5041430;28;20044;-67
2023/09/27 03:42:26;;;;;;;9.15;6.32;;;15.00;99.90;;;;;;5032273;28;20821;-75
2023/09/27 03:44:54;;;;;;;6.90;6.30;;;15.00;99.90;;;;;;5031011;28;20066;-70
2023/09/27 03:47:22;;;;;;;6.35;5.75;;;15.00;99.90;;;;;;5037029;28;20049;-66
2023/09/27 03:49:49;;;;;;;7.88;6.40;;;15.00;99.90;;;;;;5040062;28;20140;-70
2023/09/27 03:52:16;;;;;;;8.15;6.38;;;15.10;99.90;;;;;;5040103;28;20395;-68
2023/09/27 03:54:43;;;;;;;6.68;6.07;;;15.10;99.90;;;;;;5064860;28;20046;-69
2023/09/27 03:57:10;;;;;;;6.85;6.13;;;15.20;99.90;;;;;;5040131;28;20506;-76
2023/09/27 03:59:38;;;;;;;7.38;6.35;;;15.20;99.90;;;;;;5037455;28;20049;-69
2023/09/27 04:02:04;;;;;;;9.95;6.55;;;15.20;99.90;;;;;;5034663;28;20132;-69
2023/09/27 04:04:32;;;;;;;9.98;7.45;;;15.20;99.90;;;;;;5040379;28;20056;-73
2023/09/27 04:06:59;;;;;;;7.57;6.70;;;15.20;99.90;;;;;;5035083;28;20116;-67
2023/09/27 04:09:25;;;;;;;8.50;7.60;;;15.20;99.90;;;;;;5040247;28;20824;-69
2023/09/27 04:11:52;;;;;;;8.13;7.32;;;15.20;99.90;;;;;;5064597;28;20052;-72
2023/09/27 04:14:19;;;;;;;8.30;6.00;;;15.20;99.90;;;;;;5037926;28;20134;-66
2023/09/27 04:16:46;;;;;;;6.93;6.25;;;15.30;99.90;;;;;;5035949;28;20123;-67
2023/09/27 04:19:13;;;;;;;7.75;7.05;;;15.20;99.90;;;;;;5033548;28;20044;-71
2023/09/27 04:21:40;;;;;;;9.88;7.30;;;15.20;99.90;;;;;;5031810;28;20055;-68
2023/09/27 04:24:07;;;;;;;13.15;9.20;;;15.20;99.90;;;;;;5036824;28;20110;-69
2023/09/27 04:26:34;;;;;;;7.43;6.72;;;15.20;99.90;;;;;;5036682;28;20480;-71
2023/09/27 04:29:01;;;;;;;7.18;6.47;;;15.20;99.90;;;;;;5038546;28;20135;-69
2023/09/27 04:31:28;;;;;;;7.53;6.80;;;15.20;99.90;;;;;;5032977;28;20056;-67
2023/09/27 04:33:55;;;;;;;8.80;6.72;;;15.20;99.90;;;;;;5032501;28;20046;-67
2023/09/27 04:36:22;;;;;;;11.63;7.60;;;15.20;99.90;;;;;;5035699;28;20041;-67
2023/09/27 04:38:49;;;;;;;9.70;7.22;;;15.20;99.90;;;;;;5035850;28;20049;-70
2023/09/27 04:41:17;;;;;;;7.63;6.90;;;15.20;99.90;;;;;;5039339;28;20540;-66
2023/09/27 04:43:44;;;;;;;8.02;7.32;;;15.20;99.90;;;;;;5036593;28;20090;-71
2023/09/27 04:46:13;;;;;;;7.20;6.57;;;15.20;99.90;;;;;;5039157;28;20387;-67
2023/09/27 04:48:40;;;;;;;6.75;6.15;;;15.20;99.90;;;;;;5030948;28;20626;-72
2023/09/27 04:51:08;;;;;;;7.35;6.75;;;15.20;99.90;;;;;;5031835;28;20045;-72
2023/09/27 04:53:37;;;;;;;7.18;6.47;;;15.20;99.90;;;;;;5035643;28;20042;-64
2023/09/27 04:56:06;;;;;;;14.57;7.32;;;15.20;99.90;;;;;;5039027;28;20486;-73
2023/09/27 04:58:33;;;;;;;7.60;6.80;;;15.20;99.90;;;;;;5035686;28;20142;-71
2023/09/27 05:01:09;;;;;;;7.75;7.05;;;15.20;99.90;;;;;;5040721;28;20810;-68
2023/09/27 05:03:40;;;;;;;7.30;6.60;;;15.20;99.90;;;;;;5036787;28;20129;-66
2023/09/27 05:06:07;;;;;;;7.57;6.63;;;15.20;99.90;;;;;;5038904;28;20049;-64
2023/09/27 05:08:34;;;;;;;10.38;8.05;;;15.20;99.90;;;;;;5039510;28;20049;-71
2023/09/27 05:11:04;;;;;;;9.63;8.55;;;15.20;99.90;;;;;;5036583;28;20639;-66
2023/09/27 05:13:32;;;;;;;8.00;5.70;;;15.20;99.90;;;;;;5037985;28;20077;-65
2023/09/27 05:15:59;;;;;;;6.85;6.25;;;15.20;99.90;;;;;;5038863;28;20060;-68
2023/09/27 05:18:26;;;;;;;10.32;7.15;;;15.20;99.90;;;;;;5034534;28;20124;-74
2023/09/27 05:20:53;;;;;;;9.23;7.13;;;15.20;99.90;;;;;;5049399;28;20049;-67
2023/09/27 05:23:20;;;;;;;10.02;7.70;;;15.20;99.90;;;;;;5065089;28;20445;-70
2023/09/27 05:25:47;;;;;;;8.40;6.75;;;15.20;99.90;;;;;;5040099;28;20672;-65
2023/09/27 05:28:15;;;;;;;7.50;6.80;;;15.20;99.90;;;;;;5034883;28;20134;-68
2023/09/27 05:30:42;;;;;;;7.30;6.60;;;15.20;99.90;;;;;;5036781;28;20043;-66
2023/09/27 05:33:09;;;;;;;9.20;8.30;;;15.20;99.90;;;;;;5035472;28;20164;-66
2023/09/27 05:35:36;;;;;;;8.23;7.32;;;15.20;99.90;;;;;;5033857;28;20041;-66
2023/09/27 05:38:03;;;;;;;8.65;5.95;;;15.20;99.90;;;;;;5033463;28;20064;-67
2023/09/27 05:40:31;;;;;;;7.50;6.75;;;15.20;99.90;;;;;;5037163;28;20110;-64
2023/09/27 05:42:58;;;;;;;10.27;7.85;;;15.30;99.90;;;;;;5036326;28;20052;-65
2023/09/27 05:45:28;;;;;;;6.97;6.25;;;15.30;99.90;;;;;;5029848;28;20183;-71
2023/09/27 05:47:54;;;;;;;8.60;6.88;;;15.30;99.90;;;;;;5031010;28;20041;-64
2023/09/27 05:50:22;;;;;;;7.75;6.50;;;15.30;99.90;;;;;;5033093;28;20635;-67
2023/09/27 05:52:49;;;;;;;7.72;7.03;;;15.40;99.90;;;;;;5034596;28;20375;-67
2023/09/27 05:55:17;;;;;;;7.30;6.65;;;15.40;99.90;;;;;;5034214;28;20536;-70
2023/09/27 05:57:44;;;;;;;9.52;7.72;;;15.40;99.90;;;;;;5034789;28;20103;-71
2023/09/27 06:00:23;;;;;;;7.65;6.93;;;15.40;99.90;;;;;;5033752;28;20041;-68
2023/09/27 06:02:50;;;;;;;9.50;8.50;;;15.50;99.90;;;;;;5028700;28;20048;-74
2023/09/27 06:05:18;;;;;;;8.00;7.30;;;15.50;99.90;;;;;;5031290;28;20061;-65
2023/09/27 06:07:45;;;;;;;8.80;8.00;;;15.50;99.90;;;;;;5030725;28;20123;-68
2023/09/27 06:10:12;;;;;;;9.10;7.78;;;15.60;99.90;;;;;;5033226;28;20060;-67
2023/09/27 06:12:39;;;;;;;8.73;7.80;;;15.70;99.90;;;;;;5032203;28;20073;-68
2023/09/27 06:15:07;;;;;;;10.13;8.38;;;15.70;99.90;;;;;;5033739;28;20037;-66
2023/09/27 06:17:33;;;;;;;11.60;9.05;;;15.80;99.90;;;;;;5036324;28;20120;-64
2023/09/27 06:20:05;;;;;;;9.63;7.65;;;15.90;99.90;;;;;;5034074;28;20049;-68
2023/09/27 06:22:32;;;;;;;10.45;9.23;;;15.90;99.90;;;;;;5031151;28;20065;-69
2023/09/27 06:24:59;;;;;;;9.98;8.98;;;16.00;99.90;;;;;;5032989;28;20129;-64
2023/09/27 06:27:26;;;;;;;9.23;7.03;;;16.10;99.90;;;;;;5033692;28;20045;-66
2023/09/27 06:29:53;;;;;;;14.70;10.35;;;16.10;99.90;;;;;;5035648;28;20041;-63
2023/09/27 06:32:22;;;;;;;10.32;9.20;;;16.10;99.90;;;;;;5031667;28;20091;-66
2023/09/27 06:34:52;;;;;;;14.00;9.50;;;16.30;99.90;;;;;;5031490;28;20110;-69
2023/09/27 06:37:19;;;;;;;10.98;8.75;;;16.30;99.90;;;;;;5030240;28;20115;-69
2023/09/27 06:39:46;;;;;;;11.95;10.05;;;16.40;99.90;;;;;;5029180;28;20045;-70
2023/09/27 06:42:13;;;;;;;13.35;9.70;;;16.40;99.90;;;;;;5030471;28;20049;-70
2023/09/27 06:44:41;;;;;;;10.65;9.48;;;16.50;99.90;;;;;;5033631;28;20029;-63
2023/09/27 06:47:08;;;;;;;12.27;9.18;;;16.50;99.90;;;;;;5033294;28;20509;-68
2023/09/27 06:49:35;;;;;;;13.65;9.82;;;16.50;99.90;;;;;;5035595;28;20444;-66
2023/09/27 06:52:02;;;;;;;14.35;9.60;;;16.60;99.90;;;;;;5030875;28;20037;-69
2023/09/27 06:54:29;;;;;;;11.93;10.63;;;16.60;99.90;;;;;;5033351;28;20041;-65
2023/09/27 06:56:56;;;;;;;14.23;9.25;;;16.60;99.90;;;;;;5038889;28;20045;-66
2023/09/27 06:59:23;;;;;;;8.80;7.72;;;16.70;99.90;;;;;;5034280;28;20055;-68
2023/09/27 07:01:49;;;;;;;12.55;10.45;;;16.80;99.90;;;;;;5037989;28;20047;-64
2023/09/27 07:04:16;;;;;;;9.13;8.02;;;16.80;99.90;;;;;;5035005;28;20045;-70
2023/09/27 07:06:45;;;;;;;11.90;10.57;;;16.90;99.90;;;;;;5034419;28;20485;-68
2023/09/27 07:09:13;;;;;;;17.38;10.80;;;17.00;99.90;;;;;;5034905;28;20815;-66
2023/09/27 07:11:44;;;;;;;15.52;11.60;;;17.00;99.90;;;;;;5032149;28;20065;-73
2023/09/27 07:14:12;;;;;;;12.15;9.85;;;17.10;99.90;;;;;;5036516;28;20121;-69
2023/09/27 07:16:39;;;;;;;10.85;9.35;;;17.10;99.90;;;;;;5029490;28;20489;-67
2023/09/27 07:19:26;;;;;;;14.57;10.32;;;17.10;99.90;;;;;;5036539;28;20034;-66
2023/09/27 07:21:53;;;;;;;12.80;9.15;;;17.20;99.90;;;;;;5029745;28;20054;-65
2023/09/27 07:24:20;;;;;;;12.10;10.80;;;17.10;99.90;;;;;;5032541;28;20045;-68
2023/09/27 07:26:49;;;;;;;13.55;9.60;;;17.20;99.90;;;;;;5036243;28;20049;-72
2023/09/27 07:29:16;;;;;;;12.77;10.15;;;17.20;99.90;;;;;;5037271;28;20037;-69
2023/09/27 07:31:43;;;;;;;12.55;9.77;;;17.10;99.90;;;;;;5026626;28;20041;-68
2023/09/27 07:34:10;;;;;;;14.13;10.95;;;17.10;99.90;;;;;;5035698;28;20391;-69
2023/09/27 07:36:37;;;;;;;14.93;11.02;;;17.20;99.90;;;;;;5034802;28;20069;-68
2023/09/27 07:39:05;;;;;;;14.13;12.38;;;17.20;99.90;;;;;;5030308;28;20103;-67
2023/09/27 07:41:35;;;;;;;14.20;10.88;;;17.20;99.90;;;;;;5033466;28;20337;-64
2023/09/27 07:44:04;;;;;;;15.02;12.48;;;17.30;99.90;;;;;;5031296;28;20041;-70
2023/09/27 07:46:31;;;;;;;13.73;11.93;;;17.40;99.90;;;;;;5037471;28;20801;-67
2023/09/27 07:48:58;;;;;;;14.07;11.23;;;17.40;99.90;;;;;;5034746;28;20407;-69
2023/09/27 07:51:25;;;;;;;12.82;10.63;;;17.50;99.90;;;;;;5036069;28;20292;-64
2023/09/27 07:53:53;;;;;;;12.65;10.75;;;17.60;99.90;;;;;;5035753;28;20143;-67
2023/09/27 07:56:22;;;;;;;12.82;10.80;;;17.60;99.90;;;;;;5039177;28;20432;-71
2023/09/27 07:58:51;;;;;;;14.82;11.50;;;17.70;99.90;;;;;;5031616;28;20052;-67
2023/09/27 08:01:20;;;;;;;14.15;10.45;;;17.70;99.90;;;;;;5039348;28;20045;-69
2023/09/27 08:03:49;;;;;;;12.57;10.75;;;17.90;99.90;;;;;;5038220;28;20049;-71
2023/09/27 08:06:16;;;;;;;17.38;10.90;;;18.00;99.90;;;;;;5031832;28;20467;-68
2023/09/27 08:08:44;;;;;;;14.38;10.07;;;18.10;99.90;;;;;;5031272;28;20057;-72
2023/09/27 08:11:14;;;;;;;15.93;10.73;;;18.10;99.90;;;;;;5037052;28;20152;-66
2023/09/27 08:13:41;;;;;;;16.77;10.90;;;18.20;99.90;;;;;;5035356;28;20037;-70
2023/09/27 08:16:08;;;;;;;13.55;10.93;;;18.40;99.90;;;;;;5035827;28;20038;-66
2023/09/27 08:18:37;;;;;;;13.23;11.93;;;18.40;99.90;;;;;;5041144;28;20053;-65
2023/09/27 08:21:04;;;;;;;16.48;10.20;;;18.50;99.90;;;;;;5036733;28;20487;-65
2023/09/27 08:23:31;;;;;;;12.52;10.50;;;18.60;99.90;;;;;;5036541;28;20044;-67
2023/09/27 08:25:58;;;;;;;11.82;10.25;;;18.70;99.90;;;;;;5039052;28;20152;-75
2023/09/27 08:28:25;;;;;;;16.77;10.80;;;18.80;99.90;;;;;;5032974;28;20654;-69
2023/09/27 08:30:57;;;;;;;12.55;10.60;;;18.90;99.90;;;;;;5034666;28;20595;-67
2023/09/27 08:33:25;;;;;;;11.00;9.85;;;19.00;99.90;;;;;;5035582;28;20145;-67
2023/09/27 08:35:53;;;;;;;11.93;10.07;;;19.00;99.90;;;;;;5039012;28;20128;-68
2023/09/27 08:38:21;;;;;;;18.55;11.73;;;19.10;99.90;;;;;;5038460;28;20045;-70
2023/09/27 08:40:49;;;;;;;12.02;10.23;;;19.10;99.90;;;;;;5040247;28;20037;-66
2023/09/27 08:43:16;;;;;;;17.08;11.35;;;19.20;99.90;;;;;;5036048;28;20073;-67
2023/09/27 08:45:45;;;;;;;13.55;10.48;;;19.20;99.90;;;;;;5039151;28;20103;-68
2023/09/27 08:48:18;;;;;;;11.73;10.47;;;19.30;99.90;;;;;;5036108;28;20041;-65
2023/09/27 08:50:46;;;;;;;14.80;12.70;;;19.50;99.90;;;;;;5039673;28;20335;-71
2023/09/27 08:53:13;;;;;;;13.45;11.63;;;19.50;99.90;;;;;;5033627;28;20092;-70
2023/09/27 08:55:45;;;;;;;17.52;10.95;;;19.70;99.90;;;;;;5035028;28;20056;-73
2023/09/27 08:58:14;;;;;;;13.48;11.00;;;19.80;99.90;;;;;;5036702;28;20049;-66
2023/09/27 09:00:42;;;;;;;12.80;11.50;;;19.80;99.90;;;;;;5044911;28;20037;-67
2023/09/27 09:03:10;;;;;;;13.00;9.50;;;19.90;99.90;;;;;;5038256;28;20075;-67
2023/09/27 09:05:39;;;;;;;12.10;10.75;;;20.00;99.90;;;;;;5037974;28;20406;-64
2023/09/27 09:08:07;;;;;;;13.82;11.00;;;20.00;99.90;;;;;;5036683;28;20041;-65
2023/09/27 09:10:34;;;;;;;11.98;10.75;;;20.10;99.90;;;;;;5036361;28;20037;-65
2023/09/27 09:13:01;;;;;;;16.23;11.32;;;20.20;99.90;;;;;;5037838;28;20462;-68
2023/09/27 09:15:35;;;;;;;17.40;15.43;;;20.30;99.90;;;;;;5039742;28;20059;-68
2023/09/27 09:18:06;;;;;;;14.80;13.02;;;20.30;99.90;;;;;;5033691;28;20037;-67
2023/09/27 09:20:49;;;;;;;11.98;10.75;;;20.30;99.90;;;;;;5043210;28;20123;-68
2023/09/27 09:23:33;;;;;;;15.93;14.30;;;20.30;99.90;;;;;;5031350;28;20124;-69
2023/09/27 09:26:04;;;;;;;13.50;11.68;;;20.40;99.90;;;;;;5033431;28;20531;-64
2023/09/27 09:28:31;;;;;;;13.13;11.68;;;20.40;99.90;;;;;;5037392;28;20151;-70
2023/09/27 09:30:58;;;;;;;12.48;11.18;;;20.40;99.90;;;;;;5031144;28;20483;-68
2023/09/27 09:33:28;;;;;;;14.95;12.05;;;20.40;99.90;;;;;;5036275;28;20057;-66
2023/09/27 09:35:56;;;;;;;13.57;11.10;;;20.40;99.90;;;;;;5032712;28;20116;-68
2023/09/27 09:38:25;;;;;;;14.02;10.63;;;20.30;99.90;;;;;;5032245;28;20053;-65
2023/09/27 09:40:59;;;;;;;14.52;12.32;;;20.40;99.90;;;;;;5035705;28;20102;-68
2023/09/27 09:43:33;;;;;;;12.98;11.27;;;20.50;99.90;;;;;;5033861;28;20606;-66
2023/09/27 09:46:06;;;;;;;14.15;11.57;;;20.60;99.90;;;;;;5030828;28;20180;-70
2023/09/27 09:48:34;;;;;;;15.45;11.60;;;20.60;99.90;;;;;;5032266;28;20415;-70
2023/09/27 09:51:03;;;;;;;16.45;12.10;;;20.60;99.90;;;;;;5032322;28;20048;-67
2023/09/27 09:53:30;;;;;;;14.13;12.57;;;20.70;99.90;;;;;;5035753;28;20045;-65
2023/09/27 09:56:02;;;;;;;13.52;11.73;;;20.60;99.90;;;;;;5036614;28;20048;-68
2023/09/27 09:58:54;;;;;;;15.63;12.25;;;20.60;99.90;;;;;;5031605;28;20040;-66
2023/09/27 10:01:27;;;;;;;15.17;12.63;;;20.60;99.90;;;;;;5031623;28;20046;-64
2023/09/27 10:03:55;;;;;;;12.30;11.00;;;20.60;99.90;;;;;;5032467;28;20040;-65
2023/09/27 10:06:22;;;;;;;16.15;11.57;;;20.60;99.90;;;;;;5037343;28;20127;-64
2023/09/27 10:09:13;;;;;;;20.52;12.50;;;20.70;99.90;;;;;;5031517;28;20750;-67
2023/09/27 10:11:44;;;;;;;15.32;12.15;;;20.80;99.90;;;;;;5036245;28;20469;-68
2023/09/27 10:14:15;;;;;;;13.27;11.93;;;20.80;99.90;;;;;;5035662;28;20068;-69
2023/09/27 10:16:43;;;;;;;14.15;11.82;;;20.90;99.90;;;;;;5035379;28;20126;-69
2023/09/27 10:19:10;;;;;;;14.82;12.10;;;21.00;99.90;;;;;;5030656;28;20046;-71
2023/09/27 10:22:04;;;;;;;13.65;9.18;;;20.90;99.90;;;;;;5039878;28;20048;-69
2023/09/27 10:24:41;;;;;;;13.93;11.73;;;20.90;99.90;;;;;;5031268;28;20443;-68
2023/09/27 10:27:08;;;;;;;14.30;11.77;;;21.00;99.90;;;;;;5032025;28;20034;-70
2023/09/27 10:29:56;;;;;;;11.18;9.73;;;21.10;99.90;;;;;;5036562;28;20052;-69
2023/09/27 10:32:23;;;;;;;20.67;11.82;;;21.10;99.90;;;;;;5034314;28;20049;-68
2023/09/27 10:34:51;;;;;;;15.55;11.82;;;21.10;99.90;;;;;;5033306;28;20040;-71
2023/09/27 10:37:57;;;;;;;16.83;11.82;;;21.10;99.90;;;;;;5038766;28;20041;-67
2023/09/27 10:40:25;;;;;;;12.40;11.05;;;21.10;99.90;;;;;;5039319;28;20042;-65
2023/09/27 10:42:52;;;;;;;17.67;10.80;;;21.20;99.90;;;;;;5039810;28;20044;-66
2023/09/27 10:45:19;;;;;;;11.82;10.40;;;21.20;99.90;;;;;;5041676;28;20045;-64
2023/09/27 10:47:49;;;;;;;13.88;9.38;;;21.20;99.90;;;;;;5040704;28;20040;-69
2023/09/27 10:50:26;;;;;;;;;;;21.40;99.90;;;;;;5039818;28;20041;-70
2023/09/27 10:52:53;;;;;;;13.65;12.27;;;21.40;99.90;;;;;;5038940;28;19943;-66
2023/09/27 10:55:20;;;;;;;11.48;10.43;;;21.40;99.90;;;;;;5038616;28;20049;-65
2023/09/27 10:57:47;;;;;;;11.75;10.18;;;21.40;99.90;;;;;;5037260;28;20071;-72
2023/09/27 11:00:17;;;;;;;15.93;10.70;;;21.40;99.90;;;;;;5041021;28;20077;-66
2023/09/27 11:02:44;;;;;;;16.88;9.98;;;21.40;99.90;;;;;;5040367;28;20565;-68
2023/09/27 11:05:12;;;;;;;14.73;12.57;;;21.40;99.90;;;;;;5039861;28;20068;-68
2023/09/27 11:07:43;;;;;;;16.38;13.20;;;21.40;99.90;;;;;;5036999;28;20045;-72
2023/09/27 11:10:10;;;;;;;14.85;10.10;;;21.40;99.90;;;;;;5039988;28;20060;-67
2023/09/27 11:12:37;;;;;;;14.95;9.98;;;21.40;99.90;;;;;;5031772;28;20082;-68
2023/09/27 11:15:04;;;;;;;14.52;10.75;;;21.50;99.90;;;;;;5042434;28;20045;-73
2023/09/27 11:17:31;;;;;;;15.88;10.77;;;21.60;99.90;;;;;;5040855;28;20041;-66
2023/09/27 11:20:11;;;;;;;10.95;9.93;;;21.50;99.90;;;;;;5043143;28;20111;-66
2023/09/27 11:22:38;;;;;;;11.70;10.50;;;21.50;99.90;;;;;;5044311;28;20075;-72
2023/09/27 11:25:35;;;;;;;12.60;10.88;;;21.50;99.90;;;;;;5042613;28;20052;-70
2023/09/27 11:28:02;;;;;;;16.58;12.05;;;21.40;99.90;;;;;;5043346;28;20064;-74
2023/09/27 11:30:32;;;;;;;14.40;11.27;;;21.30;99.90;;;;;;5043190;28;20077;-65
2023/09/27 11:33:07;;;;;;;14.73;12.80;;;21.20;99.90;;;;;;5042758;28;20033;-70
2023/09/27 11:35:35;;;;;;;14.57;12.02;;;21.30;99.90;;;;;;5041458;28;20076;-68
2023/09/27 11:38:13;;;;;;;17.95;12.27;;;21.30;99.90;;;;;;5040004;28;20075;-67
2023/09/27 11:40:42;;;;;;;14.55;12.05;;;21.30;99.90;;;;;;5044228;28;20044;-71
2023/09/27 11:43:11;;;;;;;17.50;12.43;;;21.20;99.90;;;;;;5036584;28;20052;-66
2023/09/27 11:45:47;;;;;;;13.93;12.40;;;21.10;99.90;;;;;;5032106;28;20124;-68
2023/09/27 11:48:16;;;;;;;17.10;13.38;;;21.10;99.90;;;;;;5039371;28;20059;-68
2023/09/27 11:50:43;;;;;;;15.25;12.80;;;21.10;99.90;;;;;;5036040;28;20095;-66
2023/09/27 11:53:10;;;;;;;15.20;13.60;;;21.10;99.90;;;;;;5032747;28;20041;-67
2023/09/27 11:55:38;;;;;;;13.90;12.35;;;21.20;99.90;;;;;;5034405;28;20053;-69
2023/09/27 11:58:05;;;;;;;18.02;13.75;;;21.20;99.90;;;;;;5034974;28;20048;-71
2023/09/27 12:00:32;;;;;;;17.88;13.95;;;21.30;99.90;;;;;;5033768;28;20045;-64
2023/09/27 12:02:59;;;;;;;19.83;15.10;;;21.30;99.90;;;;;;5037325;28;20796;-66
2023/09/27 12:05:26;;;;;;;15.80;12.82;;;21.30;99.90;;;;;;5039932;28;20151;-70
2023/09/27 12:07:55;;;;;;;20.33;16.25;;;21.40;99.90;;;;;;5033141;28;20029;-65
2023/09/27 12:10:22;;;;;;;27.10;15.18;;;21.30;99.90;;;;;;5036002;28;20395;-72
2023/09/27 12:12:49;;;;;;;22.20;14.30;;;21.20;99.90;;;;;;5030430;28;20037;-74
2023/09/27 12:15:16;;;;;;;13.95;12.55;;;21.20;99.90;;;;;;5034161;28;20060;-64
2023/09/27 12:17:43;;;;;;;18.40;14.27;;;21.20;99.90;;;;;;5035191;28;20044;-69
2023/09/27 12:20:11;;;;;;;17.58;14.93;;;21.10;99.90;;;;;;5035490;28;20049;-68
2023/09/27 12:22:57;;;;;;;21.77;14.10;;;21.00;99.90;;;;;;5034115;28;20135;-66
2023/09/27 12:25:26;;;;;;;15.77;14.07;;;21.10;99.90;;;;;;5036984;28;20463;-64
2023/09/27 12:27:53;;;;;;;22.55;14.52;;;21.20;99.90;;;;;;5042041;28;20052;-66
2023/09/27 12:30:20;;;;;;;20.80;15.10;;;21.20;99.90;;;;;;5040454;28;20065;-69
2023/09/27 12:32:47;;;;;;;21.92;16.40;;;21.10;99.90;;;;;;5032465;28;20045;-73
2023/09/27 12:35:14;;;;;;;25.70;17.50;;;21.00;99.90;;;;;;5038093;28;20045;-68
2023/09/27 12:37:41;;;;;;;18.52;16.15;;;21.00;99.90;;;;;;5034250;28;20084;-70
2023/09/27 12:40:09;;;;;;;18.42;14.57;;;21.00;99.90;;;;;;5035104;28;20124;-68
2023/09/27 12:42:36;;;;;;;18.40;15.05;;;21.00;99.90;;;;;;5034033;28;20069;-71
2023/09/27 12:45:03;;;;;;;16.10;14.00;;;21.00;99.90;;;;;;5036190;28;20131;-70
2023/09/27 12:47:32;;;;;;;16.20;14.13;;;20.90;99.90;;;;;;5035642;28;20041;-72